createdAt,value
2018-10-16T00:01:09.579Z,65.3
2018-10-16T00:02:19.718Z,65.11
2018-10-16T00:03:29.868Z,65.11
2018-10-16T00:04:40.084Z,65.2
2018-10-16T00:05:49.960Z,65.39
2018-10-16T00:07:00.115Z,65.39
2018-10-16T00:08:10.315Z,65.39
2018-10-16T00:09:20.196Z,65.58
2018-10-16T00:10:30.407Z,65.3
2018-10-16T00:11:41.504Z,65.48
2018-10-16T00:12:51.682Z,65.48
2018-10-16T00:14:02.078Z,65.48
2018-10-16T00:15:12.247Z,65.77
2018-10-16T00:16:22.424Z,65.2
2018-10-16T00:17:32.283Z,65.2
2018-10-16T00:18:42.434Z,65.58
2018-10-16T00:19:52.742Z,65.68
2018-10-16T00:21:03.882Z,65.39
2018-10-16T00:22:14.017Z,65.48
2018-10-16T00:23:24.199Z,65.48
2018-10-16T00:24:34.551Z,65.2
2018-10-16T00:25:44.686Z,65.48
2018-10-16T00:26:54.872Z,65.3
2018-10-16T00:28:05.190Z,65.39
2018-10-16T00:29:15.334Z,65.68
2018-10-16T00:30:25.204Z,65.68
2018-10-16T00:31:35.352Z,65.77
2018-10-16T00:32:45.701Z,65.97
2018-10-16T00:33:56.124Z,65.87
2018-10-16T00:35:06.376Z,65.68
2018-10-16T00:36:16.659Z,65.77
2018-10-16T00:37:26.541Z,65.87
2018-10-16T00:38:36.053Z,65.97
2018-10-16T00:39:46.229Z,66.25
2018-10-16T00:40:56.442Z,66.16
2018-10-16T00:42:06.624Z,66.25
2018-10-16T00:43:16.615Z,65.97
2018-10-16T00:44:26.745Z,65.97
2018-10-16T00:45:36.620Z,66.16
2018-10-16T00:46:46.818Z,65.77
2018-10-16T00:47:56.981Z,66.06
2018-10-16T00:49:07.198Z,66.06
2018-10-16T00:50:17.079Z,66.13
2018-10-16T00:51:27.218Z,66.44
2018-10-16T00:52:37.343Z,66.16
2018-10-16T00:53:47.511Z,65.97
2018-10-16T00:54:57.722Z,65.87
2018-10-16T00:56:08.424Z,65.87
2018-10-16T00:57:18.650Z,66.16
2018-10-16T00:58:28.531Z,65.97
2018-10-16T00:59:38.322Z,65.87
2018-10-16T01:00:48.271Z,66.16
2018-10-16T01:01:59.440Z,66.16
2018-10-16T01:03:09.216Z,66.44
2018-10-16T01:04:19.383Z,65.87
2018-10-16T01:05:28.937Z,66.44
2018-10-16T01:06:39.123Z,65.97
2018-10-16T01:07:49.006Z,66.35
2018-10-16T01:08:59.115Z,65.97
2018-10-16T01:10:09.309Z,65.68
2018-10-16T01:11:19.460Z,65.87
2018-10-16T01:12:29.659Z,65.97
2018-10-16T01:13:39.527Z,65.97
2018-10-16T01:14:49.683Z,65.84
2018-10-16T01:15:59.826Z,65.97
2018-10-16T01:17:09.980Z,65.84
2018-10-16T01:18:20.237Z,65.93
2018-10-16T01:19:30.444Z,66.5
2018-10-16T01:20:40.736Z,65.93
2018-10-16T01:21:50.906Z,65.93
2018-10-16T01:23:01.042Z,65.74
2018-10-16T01:24:11.172Z,66.31
2018-10-16T01:25:21.128Z,65.93
2018-10-16T01:26:31.425Z,66.13
2018-10-16T01:27:41.610Z,66.03
2018-10-16T01:28:51.732Z,66.22
2018-10-16T01:30:01.895Z,65.93
2018-10-16T01:31:12.100Z,66.03
2018-10-16T01:32:22.301Z,65.64
2018-10-16T01:33:32.614Z,65.55
2018-10-16T01:34:42.890Z,65.93
2018-10-16T01:35:53.226Z,66.03
2018-10-16T01:37:03.387Z,65.84
2018-10-16T01:38:13.545Z,66.28
2018-10-16T01:39:23.709Z,66.28
2018-10-16T01:40:33.969Z,66.19
2018-10-16T01:41:44.210Z,65.9
2018-10-16T01:42:54.390Z,65.61
2018-10-16T01:44:04.544Z,65.93
2018-10-16T01:45:14.681Z,65.9
2018-10-16T01:46:24.573Z,65.71
2018-10-16T01:47:34.731Z,65.71
2018-10-16T01:48:44.943Z,65.9
2018-10-16T01:49:55.062Z,65.8
2018-10-16T01:51:05.191Z,65.93
2018-10-16T01:52:15.218Z,65.74
2018-10-16T01:53:25.581Z,65.93
2018-10-16T01:54:35.707Z,65.93
2018-10-16T01:55:45.624Z,65.84
2018-10-16T01:56:55.782Z,65.93
2018-10-16T01:58:05.901Z,65.93
2018-10-16T01:59:16.022Z,65.36
2018-10-16T02:00:25.857Z,65.36
2018-10-16T02:01:36.053Z,66.03
2018-10-16T02:02:46.621Z,65.74
2018-10-16T02:03:56.645Z,65.64
2018-10-16T02:05:07.795Z,65.93
2018-10-16T02:06:17.927Z,65.84
2018-10-16T02:07:28.074Z,65.93
2018-10-16T02:08:38.215Z,66.13
2018-10-16T02:09:48.562Z,65.93
2018-10-16T02:10:58.800Z,65.74
2018-10-16T02:12:09.015Z,65.64
2018-10-16T02:13:19.307Z,65.87
2018-10-16T02:14:29.332Z,65.77
2018-10-16T02:15:39.656Z,66.06
2018-10-16T02:16:49.516Z,65.48
2018-10-16T02:18:00.658Z,65.48
2018-10-16T02:19:10.799Z,65.39
2018-10-16T02:20:20.936Z,65.48
2018-10-16T02:21:31.155Z,65.68
2018-10-16T02:22:41.343Z,65.48
2018-10-16T02:23:51.521Z,65.97
2018-10-16T02:25:01.664Z,65.87
2018-10-16T02:26:11.782Z,65.97
2018-10-16T02:27:21.915Z,66.25
2018-10-16T02:28:32.080Z,66.06
2018-10-16T02:29:43.184Z,66.06
2018-10-16T02:30:53.561Z,65.84
2018-10-16T02:32:03.721Z,65.93
2018-10-16T02:33:14.002Z,66.22
2018-10-16T02:34:24.189Z,65.93
2018-10-16T02:35:34.330Z,66.22
2018-10-16T02:36:44.223Z,66.03
2018-10-16T02:37:53.985Z,65.74
2018-10-16T02:39:04.150Z,65.93
2018-10-16T02:40:13.759Z,65.64
2018-10-16T02:41:24.023Z,65.93
2018-10-16T02:42:34.167Z,65.84
2018-10-16T02:43:44.067Z,66.13
2018-10-16T02:44:54.201Z,66.03
2018-10-16T02:46:04.149Z,65.84
2018-10-16T02:47:14.288Z,65.84
2018-10-16T02:48:24.409Z,65.93
2018-10-16T02:49:35.531Z,66.6
2018-10-16T02:50:45.688Z,66.03
2018-10-16T02:51:55.818Z,65.74
2018-10-16T02:53:05.932Z,65.84
2018-10-16T02:54:16.098Z,65.64
2018-10-16T02:55:25.896Z,65.64
2018-10-16T02:56:36.088Z,65.93
2018-10-16T02:57:46.249Z,65.84
2018-10-16T02:58:55.898Z,65.93
2018-10-16T03:00:06.117Z,65.84
2018-10-16T03:01:16.363Z,65.84
2018-10-16T03:02:26.540Z,66.41
2018-10-16T03:03:36.758Z,65.93
2018-10-16T03:04:47.026Z,65.93
2018-10-16T03:05:57.307Z,66.22
2018-10-16T03:07:07.563Z,66.31
2018-10-16T03:08:17.800Z,65.93
2018-10-16T03:09:27.974Z,66.03
2018-10-16T03:10:38.164Z,65.84
2018-10-16T03:11:48.307Z,65.84
2018-10-16T03:12:58.480Z,65.64
2018-10-16T03:14:08.673Z,65.64
2018-10-16T03:15:18.839Z,66.13
2018-10-16T03:16:29.002Z,66.03
2018-10-16T03:17:39.124Z,65.74
2018-10-16T03:18:49.464Z,65.74
2018-10-16T03:19:59.688Z,66.41
2018-10-16T03:21:09.881Z,66.22
2018-10-16T03:22:19.758Z,65.84
2018-10-16T03:23:29.920Z,66.41
2018-10-16T03:24:40.044Z,66.06
2018-10-16T03:25:50.167Z,65.77
2018-10-16T03:27:00.293Z,65.97
2018-10-16T03:28:09.815Z,65.87
2018-10-16T03:29:19.950Z,65.77
2018-10-16T03:30:30.076Z,65.87
2018-10-16T03:31:40.210Z,65.77
2018-10-16T03:32:51.491Z,65.68
2018-10-16T03:34:01.693Z,65.97
2018-10-16T03:35:11.578Z,65.97
2018-10-16T03:36:21.702Z,66.06
2018-10-16T03:37:31.559Z,65.68
2018-10-16T03:38:41.643Z,65.68
2018-10-16T03:39:51.833Z,65.39
2018-10-16T03:41:02.273Z,65.48
2018-10-16T03:42:12.387Z,65.48
2018-10-16T03:43:22.503Z,65.39
2018-10-16T03:44:32.631Z,65.58
2018-10-16T03:45:42.535Z,65.48
2018-10-16T03:46:52.676Z,65.39
2018-10-16T03:48:02.448Z,65.3
2018-10-16T03:49:12.650Z,65.3
2018-10-16T03:50:22.767Z,64.91
2018-10-16T03:51:32.942Z,65.01
2018-10-16T03:52:42.850Z,65.01
2018-10-16T03:53:52.991Z,65.04
2018-10-16T03:55:03.153Z,65.23
2018-10-16T03:56:13.371Z,65.23
2018-10-16T03:57:23.477Z,65.04
2018-10-16T03:58:33.524Z,64.95
2018-10-16T03:59:44.622Z,65.3
2018-10-16T04:00:55.723Z,65.3
2018-10-16T04:02:05.328Z,65.14
2018-10-16T04:03:15.446Z,65.14
2018-10-16T04:04:25.579Z,65.52
2018-10-16T04:05:35.712Z,65.52
2018-10-16T04:06:46.053Z,65.33
2018-10-16T04:07:56.247Z,65.71
2018-10-16T04:09:06.387Z,65.61
2018-10-16T04:10:16.519Z,65.61
2018-10-16T04:11:26.878Z,65.42
2018-10-16T04:12:36.994Z,66
2018-10-16T04:13:47.393Z,66
2018-10-16T04:14:57.422Z,66.38
2018-10-16T04:16:07.728Z,65.77
2018-10-16T04:17:17.904Z,66.19
2018-10-16T04:18:28.119Z,66.25
2018-10-16T04:19:38.263Z,65.87
2018-10-16T04:20:48.262Z,65.87
2018-10-16T04:21:58.425Z,66.25
2018-10-16T04:23:07.973Z,65.97
2018-10-16T04:24:18.130Z,65.68
2018-10-16T04:25:28.306Z,65.87
2018-10-16T04:26:38.480Z,65.77
2018-10-16T04:27:48.630Z,65.97
2018-10-16T04:28:58.795Z,66.35
2018-10-16T04:30:08.906Z,66.35
2018-10-16T04:31:19.073Z,66.25
2018-10-16T04:32:28.672Z,66.44
2018-10-16T04:33:38.840Z,66.44
2018-10-16T04:34:48.974Z,66.44
2018-10-16T04:35:59.099Z,66.35
2018-10-16T04:37:08.971Z,66.44
2018-10-16T04:38:18.888Z,66.63
2018-10-16T04:39:29.146Z,66.25
2018-10-16T04:40:39.417Z,66.35
2018-10-16T04:41:49.802Z,66.44
2018-10-16T04:43:00.301Z,65.97
2018-10-16T04:44:10.498Z,66.35
2018-10-16T04:45:20.731Z,66.44
2018-10-16T04:46:30.950Z,66.25
2018-10-16T04:47:41.298Z,66.25
2018-10-16T04:48:51.448Z,66.54
2018-10-16T04:50:01.629Z,66.54
2018-10-16T04:51:11.789Z,66.44
2018-10-16T04:52:21.985Z,66.44
2018-10-16T04:53:33.101Z,66.16
2018-10-16T04:54:43.027Z,66.16
2018-10-16T04:55:53.259Z,66.25
2018-10-16T04:57:03.513Z,66.25
2018-10-16T04:58:13.765Z,66.25
2018-10-16T04:59:23.694Z,66.63
2018-10-16T05:00:33.863Z,65.77
2018-10-16T05:01:44.007Z,65.87
2018-10-16T05:02:54.137Z,65.77
2018-10-16T05:04:03.993Z,66.25
2018-10-16T05:05:14.628Z,66.06
2018-10-16T05:06:24.786Z,66.54
2018-10-16T05:07:34.941Z,66.54
2018-10-16T05:08:45.341Z,66.54
2018-10-16T05:09:55.473Z,66.25
2018-10-16T05:11:05.336Z,66.35
2018-10-16T05:12:15.206Z,66.83
2018-10-16T05:13:25.355Z,66.73
2018-10-16T05:14:35.491Z,66.92
2018-10-16T05:15:45.622Z,66.73
2018-10-16T05:16:55.952Z,67.4
2018-10-16T05:18:06.101Z,67.4
2018-10-16T05:19:16.516Z,67.69
2018-10-16T05:20:27.084Z,67.97
2018-10-16T05:21:37.211Z,67.88
2018-10-16T05:22:47.405Z,68.07
2018-10-16T05:23:57.280Z,67.84
2018-10-16T05:25:07.460Z,67.97
2018-10-16T05:26:17.648Z,67.94
2018-10-16T05:27:27.820Z,67.84
2018-10-16T05:28:37.950Z,67.65
2018-10-16T05:29:48.209Z,67.78
2018-10-16T05:30:58.602Z,67.88
2018-10-16T05:32:09.050Z,67.59
2018-10-16T05:33:19.350Z,67.21
2018-10-16T05:34:29.511Z,67.3
2018-10-16T05:35:39.664Z,67.49
2018-10-16T05:36:49.599Z,67.4
2018-10-16T05:37:59.730Z,67.11
2018-10-16T05:39:09.919Z,66.63
2018-10-16T05:40:20.198Z,66.73
2018-10-16T05:41:30.358Z,67.02
2018-10-16T05:42:40.500Z,66.73
2018-10-16T05:43:50.616Z,67.02
2018-10-16T05:45:00.772Z,66.92
2018-10-16T05:46:10.640Z,66.73
2018-10-16T05:47:20.771Z,66.54
2018-10-16T05:48:30.947Z,66.92
2018-10-16T05:49:41.084Z,66.83
2018-10-16T05:50:50.612Z,66.63
2018-10-16T05:52:00.877Z,66.54
2018-10-16T05:53:11.148Z,67.3
2018-10-16T05:54:21.684Z,67.4
2018-10-16T05:55:32.219Z,67.11
2018-10-16T05:56:42.344Z,67.21
2018-10-16T05:57:52.595Z,67.78
2018-10-16T05:59:02.584Z,67.69
2018-10-16T06:00:12.676Z,67.78
2018-10-16T06:01:22.818Z,67.78
2018-10-16T06:02:33.218Z,67.59
2018-10-16T06:03:43.340Z,67.49
2018-10-16T06:04:53.471Z,67.4
2018-10-16T06:06:03.764Z,67.59
2018-10-16T06:07:13.600Z,67.78
2018-10-16T06:08:23.736Z,67.59
2018-10-16T06:09:33.642Z,67.69
2018-10-16T06:10:43.948Z,67.69
2018-10-16T06:11:54.452Z,67.59
2018-10-16T06:13:04.619Z,67.78
2018-10-16T06:14:14.772Z,67.69
2018-10-16T06:15:24.554Z,67.69
2018-10-16T06:16:34.734Z,67.69
2018-10-16T06:17:44.968Z,67.78
2018-10-16T06:18:55.092Z,67.75
2018-10-16T06:20:05.279Z,67.69
2018-10-16T06:21:15.580Z,67.78
2018-10-16T06:22:25.821Z,67.88
2018-10-16T06:23:36.053Z,67.78
2018-10-16T06:24:46.449Z,67.4
2018-10-16T06:25:56.564Z,67.49
2018-10-16T06:27:06.789Z,67.3
2018-10-16T06:28:16.682Z,67.21
2018-10-16T06:29:26.803Z,67.49
2018-10-16T06:30:36.928Z,67.78
2018-10-16T06:31:47.114Z,67.49
2018-10-16T06:32:57.008Z,67.49
2018-10-16T06:34:07.217Z,67.49
2018-10-16T06:35:17.357Z,67.49
2018-10-16T06:36:27.216Z,67.69
2018-10-16T06:37:37.339Z,67.97
2018-10-16T06:38:47.459Z,67.88
2018-10-16T06:39:57.338Z,67.78
2018-10-16T06:41:07.862Z,67.59
2018-10-16T06:42:18.257Z,67.69
2018-10-16T06:43:28.015Z,67.78
2018-10-16T06:44:38.178Z,67.78
2018-10-16T06:45:48.362Z,67.78
2018-10-16T06:46:58.584Z,67.69
2018-10-16T06:48:08.840Z,67.69
2018-10-16T06:49:20.284Z,67.88
2018-10-16T06:50:30.198Z,67.78
2018-10-16T06:51:40.143Z,67.59
2018-10-16T06:52:50.303Z,67.78
2018-10-16T06:54:00.433Z,67.78
2018-10-16T06:55:10.747Z,67.78
2018-10-16T06:56:21.087Z,67.69
2018-10-16T06:57:31.221Z,67.69
2018-10-16T06:58:41.368Z,67.02
2018-10-16T06:59:51.499Z,67.49
2018-10-16T07:01:01.717Z,67.4
2018-10-16T07:02:11.595Z,67.4
2018-10-16T07:03:21.714Z,66.83
2018-10-16T07:04:31.941Z,66.92
2018-10-16T07:05:42.171Z,66.73
2018-10-16T07:06:52.607Z,66.35
2018-10-16T07:08:03.339Z,66.63
2018-10-16T07:09:13.522Z,66.47
2018-10-16T07:10:23.645Z,66
2018-10-16T07:11:33.893Z,66.25
2018-10-16T07:12:44.042Z,65.87
2018-10-16T07:13:54.173Z,66.38
2018-10-16T07:15:04.539Z,66
2018-10-16T07:16:15.051Z,66
2018-10-16T07:17:25.263Z,66.28
2018-10-16T07:18:35.449Z,66.28
2018-10-16T07:19:45.599Z,66
2018-10-16T07:20:55.828Z,65.71
2018-10-16T07:22:06.209Z,65.52
2018-10-16T07:23:16.484Z,65.71
2018-10-16T07:24:26.801Z,65.42
2018-10-16T07:25:36.989Z,65.04
2018-10-16T07:26:47.140Z,65.23
2018-10-16T07:27:57.283Z,65.14
2018-10-16T07:29:07.551Z,65.04
2018-10-16T07:30:17.639Z,65.14
2018-10-16T07:31:27.838Z,64.95
2018-10-16T07:32:38.192Z,65.14
2018-10-16T07:33:48.402Z,65.42
2018-10-16T07:34:58.690Z,65.14
2018-10-16T07:36:09.034Z,64.95
2018-10-16T07:37:19.156Z,65.14
2018-10-16T07:38:29.496Z,65.33
2018-10-16T07:39:40.059Z,65.17
2018-10-16T07:40:50.166Z,64.66
2018-10-16T07:41:59.935Z,65.14
2018-10-16T07:43:10.259Z,64.66
2018-10-16T07:44:20.133Z,64.69
2018-10-16T07:45:30.317Z,64.69
2018-10-16T07:46:40.450Z,64.59
2018-10-16T07:47:50.589Z,64.5
2018-10-16T07:49:00.760Z,64.69
2018-10-16T07:50:10.683Z,64.22
2018-10-16T07:51:20.915Z,64.02
2018-10-16T07:52:31.054Z,63.83
2018-10-16T07:53:41.198Z,64.31
2018-10-16T07:54:51.140Z,64.31
2018-10-16T07:56:01.318Z,64.69
2018-10-16T07:57:11.590Z,64.22
2018-10-16T07:58:22.249Z,64.4
2018-10-16T07:59:32.426Z,63.96
2018-10-16T08:00:42.305Z,64.12
2018-10-16T08:01:52.489Z,64.12
2018-10-16T08:03:02.644Z,64.12
2018-10-16T08:04:12.794Z,64.05
2018-10-16T08:05:22.967Z,64.31
2018-10-16T08:06:33.208Z,64.22
2018-10-16T08:07:43.416Z,64.05
2018-10-16T08:08:53.292Z,64.63
2018-10-16T08:10:03.470Z,64.53
2018-10-16T08:11:13.658Z,64.43
2018-10-16T08:12:24.208Z,64.92
2018-10-16T08:13:34.340Z,64.34
2018-10-16T08:14:44.704Z,63.67
2018-10-16T08:15:54.890Z,63.96
2018-10-16T08:17:04.928Z,63.29
2018-10-16T08:18:15.576Z,63.32
2018-10-16T08:19:25.725Z,63.19
2018-10-16T08:20:36.121Z,63.29
2018-10-16T08:21:46.268Z,63.22
2018-10-16T08:22:56.436Z,63.42
2018-10-16T08:24:06.557Z,63.22
2018-10-16T08:25:16.681Z,62.84
2018-10-16T08:26:26.850Z,62.93
2018-10-16T08:27:37.087Z,63.03
2018-10-16T08:28:47.923Z,62.36
2018-10-16T08:29:58.231Z,62.65
2018-10-16T08:31:08.989Z,62.55
2018-10-16T08:32:19.120Z,62.07
2018-10-16T08:33:29.252Z,62.36
2018-10-16T08:34:39.647Z,62.36
2018-10-16T08:35:49.638Z,62.65
2018-10-16T08:37:00.073Z,62.17
2018-10-16T08:38:10.451Z,61.88
2018-10-16T08:39:20.576Z,61.6
2018-10-16T08:40:30.195Z,61.88
2018-10-16T08:41:40.588Z,61.69
2018-10-16T08:44:07.789Z,61.82
2018-10-16T08:45:21.620Z,61.53
2018-10-16T08:47:45.635Z,61.53
2018-10-16T08:48:55.817Z,60.96
2018-10-16T08:50:06.183Z,60.7
2018-10-16T08:51:16.327Z,60.22
2018-10-16T08:52:26.445Z,60.31
2018-10-16T08:53:36.308Z,59.83
2018-10-16T08:54:46.517Z,59.55
2018-10-16T08:55:56.528Z,59.55
2018-10-16T08:57:08.016Z,59.45
2018-10-16T08:58:17.903Z,59.45
2018-10-16T08:59:28.062Z,59.58
2018-10-16T09:00:38.284Z,59.67
2018-10-16T09:01:48.449Z,59.48
2018-10-16T09:02:58.584Z,58.81
2018-10-16T09:04:08.713Z,58.45
2018-10-16T09:05:18.863Z,58.36
2018-10-16T09:06:29.137Z,58.26
2018-10-16T09:07:39.470Z,57.33
2018-10-16T09:08:49.674Z,56.49
2018-10-16T09:09:59.824Z,54.99
2018-10-16T09:11:09.968Z,54.17
2018-10-16T09:12:19.838Z,53.23
2018-10-16T09:13:29.969Z,52.69
2018-10-16T09:14:40.371Z,51.58
2018-10-16T09:15:50.152Z,50.16
2018-10-16T09:17:00.316Z,50.16
2018-10-16T09:18:11.169Z,49.6
2018-10-16T09:19:21.323Z,49.32
2018-10-16T09:20:31.469Z,48.54
2018-10-16T09:21:41.868Z,48.64
2018-10-16T09:22:52.007Z,48.35
2018-10-16T09:24:02.165Z,48.03
2018-10-16T09:25:12.474Z,48.71
2018-10-16T09:26:23.042Z,48.59
2018-10-16T09:27:33.214Z,48.71
2018-10-16T09:28:43.357Z,48.49
2018-10-16T09:29:53.540Z,48.49
2018-10-16T09:31:03.961Z,48.4
2018-10-16T09:32:14.579Z,48.3
2018-10-16T09:33:24.767Z,48.4
2018-10-16T09:34:34.989Z,48.38
2018-10-16T09:35:45.220Z,47.89
2018-10-16T09:36:55.355Z,48.47
2018-10-16T09:38:05.667Z,48.38
2018-10-16T09:39:15.948Z,48.57
2018-10-16T09:40:26.106Z,48.57
2018-10-16T09:41:36.266Z,48.76
2018-10-16T09:42:46.167Z,47.8
2018-10-16T09:43:56.235Z,47.99
2018-10-16T09:45:06.486Z,47.8
2018-10-16T09:46:16.356Z,48.18
2018-10-16T09:47:25.920Z,47.82
2018-10-16T09:48:36.085Z,47.92
2018-10-16T09:49:46.299Z,47.92
2018-10-16T09:50:56.476Z,47.31
2018-10-16T09:52:06.608Z,47.8
2018-10-16T09:53:16.769Z,47.99
2018-10-16T09:54:26.996Z,47.8
2018-10-16T09:55:37.130Z,48.18
2018-10-16T09:56:47.296Z,48.38
2018-10-16T09:57:57.477Z,48.18
2018-10-16T09:59:07.626Z,47.7
2018-10-16T10:00:17.822Z,47.89
2018-10-16T10:01:28.000Z,47.82
2018-10-16T10:02:38.358Z,48.38
2018-10-16T10:03:48.568Z,48.86
2018-10-16T10:04:58.473Z,48.66
2018-10-16T10:06:08.654Z,49.15
2018-10-16T10:07:18.791Z,49.15
2018-10-16T10:08:28.967Z,49.15
2018-10-16T10:09:38.886Z,49.15
2018-10-16T10:10:49.098Z,50.01
2018-10-16T10:11:59.200Z,49.7
2018-10-16T10:13:09.393Z,49.89
2018-10-16T10:14:19.570Z,49.89
2018-10-16T10:15:29.707Z,49.41
2018-10-16T10:16:39.967Z,49.12
2018-10-16T10:17:49.835Z,48.95
2018-10-16T10:18:59.993Z,48.47
2018-10-16T10:20:10.261Z,47.92
2018-10-16T10:21:20.402Z,47.82
2018-10-16T10:22:30.725Z,47.53
2018-10-16T10:23:40.908Z,47.17
2018-10-16T10:24:51.065Z,47.07
2018-10-16T10:26:01.256Z,46.23
2018-10-16T10:27:11.508Z,45.28
2018-10-16T10:28:21.670Z,44.43
2018-10-16T10:29:31.804Z,43.88
2018-10-16T10:30:41.965Z,43.32
2018-10-16T10:31:51.866Z,42.47
2018-10-16T10:33:02.026Z,42.08
2018-10-16T10:34:13.089Z,41.7
2018-10-16T10:35:23.317Z,41.62
2018-10-16T10:36:33.878Z,41.33
2018-10-16T10:37:44.046Z,41.25
2018-10-16T10:38:54.316Z,40.58
2018-10-16T10:40:04.263Z,40.38
2018-10-16T10:41:14.168Z,39.92
2018-10-16T10:42:24.370Z,39.82
2018-10-16T10:43:36.159Z,38.66
2018-10-16T10:44:46.034Z,38.17
2018-10-16T10:45:56.189Z,38.09
2018-10-16T10:47:06.336Z,37.41
2018-10-16T10:48:16.490Z,37.15
2018-10-16T10:49:26.657Z,36.95
2018-10-16T10:50:38.277Z,36.85
2018-10-16T10:51:53.286Z,36.66
2018-10-16T10:53:03.464Z,36.56
2018-10-16T10:54:13.630Z,35.88
2018-10-16T10:55:23.818Z,35.59
2018-10-16T10:56:33.979Z,35.69
2018-10-16T10:57:44.640Z,35.69
2018-10-16T10:58:54.853Z,35.21
2018-10-16T11:00:05.103Z,34.83
2018-10-16T11:01:16.507Z,34.75
2018-10-16T11:02:26.843Z,34.66
2018-10-16T11:03:38.267Z,34.48
2018-10-16T11:04:48.900Z,33.72
2018-10-16T11:05:59.104Z,32.67
2018-10-16T11:07:09.011Z,32.59
2018-10-16T11:08:19.195Z,32.39
2018-10-16T11:10:42.102Z,31.63
2018-10-16T11:11:52.293Z,31.63
2018-10-16T11:13:02.439Z,31.35
2018-10-16T11:14:12.616Z,31.45
2018-10-16T11:15:22.288Z,30.88
2018-10-16T11:16:32.513Z,30.68
2018-10-16T11:17:42.732Z,30.51
2018-10-16T11:18:52.847Z,30.21
2018-10-16T11:20:02.993Z,29.64
2018-10-16T11:21:13.349Z,29.44
2018-10-16T11:22:23.794Z,29.54
2018-10-16T11:23:33.964Z,29.15
2018-10-16T11:24:43.873Z,29.54
2018-10-16T11:25:54.025Z,28.86
2018-10-16T11:27:04.243Z,29.36
2018-10-16T11:28:14.899Z,28.88
2018-10-16T11:29:25.043Z,28.69
2018-10-16T11:30:36.215Z,28.52
2018-10-16T11:31:46.366Z,28.52
2018-10-16T11:32:56.702Z,27.93
2018-10-16T11:34:08.337Z,27.64
2018-10-16T11:36:36.021Z,27.26
2018-10-16T11:37:48.634Z,26.67
2018-10-16T11:45:33.792Z,27.25
2018-10-16T11:46:45.180Z,27.45
2018-10-16T11:47:55.501Z,27.06
2018-10-16T11:50:22.217Z,26.67
2018-10-16T11:51:34.622Z,26.28
2018-10-16T11:52:44.778Z,26.38
2018-10-16T11:53:54.955Z,26.49
2018-10-16T11:55:05.100Z,26.49
2018-10-16T11:56:15.543Z,26.39
2018-10-16T11:57:25.653Z,26
2018-10-16T11:58:35.594Z,26.1
2018-10-16T11:59:45.485Z,26.21
2018-10-16T12:00:55.440Z,25.82
2018-10-16T12:02:05.777Z,25.82
2018-10-16T12:03:16.647Z,25.62
2018-10-16T12:04:26.855Z,25.43
2018-10-16T12:05:37.031Z,25.52
2018-10-16T12:06:47.189Z,25.23
2018-10-16T12:07:57.447Z,25.22
2018-10-16T12:09:07.877Z,25.42
2018-10-16T12:10:18.033Z,26
2018-10-16T12:11:28.229Z,25.81
2018-10-16T12:12:38.411Z,25.51
2018-10-16T12:13:49.571Z,25.42
2018-10-16T12:14:59.193Z,25.32
2018-10-16T12:16:09.517Z,25.12
2018-10-16T12:17:19.685Z,25.12
2018-10-16T12:18:29.840Z,24.92
2018-10-16T12:19:39.631Z,25.12
2018-10-16T12:20:50.010Z,25.31
2018-10-16T12:22:01.332Z,25.32
2018-10-16T12:23:11.221Z,25.22
2018-10-16T12:24:21.115Z,25.12
2018-10-16T12:25:31.311Z,25.12
2018-10-16T12:26:41.537Z,25.04
2018-10-16T12:27:51.697Z,25.12
2018-10-16T12:29:01.799Z,24.93
2018-10-16T12:30:12.071Z,24.92
2018-10-16T12:31:22.290Z,24.93
2018-10-16T12:32:32.698Z,25.23
2018-10-16T12:33:42.594Z,25.04
2018-10-16T12:34:52.784Z,25.13
2018-10-16T12:36:02.962Z,25.04
2018-10-16T12:37:14.322Z,25.23
2018-10-16T12:38:24.615Z,25.13
2018-10-16T12:39:35.221Z,25.43
2018-10-16T12:40:45.811Z,25.52
2018-10-16T12:41:55.415Z,25.51
2018-10-16T12:44:19.701Z,26.09
2018-10-16T12:46:45.676Z,26.46
2018-10-16T12:47:58.818Z,26.84
2018-10-16T12:49:09.538Z,27.12
2018-10-16T12:50:19.835Z,27.8
2018-10-16T12:51:30.540Z,28.08
2018-10-16T12:52:40.685Z,28.38
2018-10-16T12:53:50.934Z,28.26
2018-10-16T12:55:01.208Z,28.55
2018-10-16T12:56:11.602Z,28.74
2018-10-16T12:57:22.243Z,28.74
2018-10-16T12:58:32.962Z,28.83
2018-10-16T12:59:43.102Z,29.11
2018-10-16T13:00:53.308Z,29.68
2018-10-16T13:02:03.589Z,30.07
2018-10-16T13:03:14.297Z,30.25
2018-10-16T13:04:24.678Z,30.52
2018-10-16T13:05:34.588Z,30.82
2018-10-16T13:06:44.727Z,31.1
2018-10-16T13:07:54.985Z,31.38
2018-10-16T13:09:05.569Z,31.77
2018-10-16T13:10:16.306Z,32.17
2018-10-16T13:11:26.218Z,32.45
2018-10-16T13:12:35.838Z,32.44
2018-10-16T13:13:46.059Z,32.34
2018-10-16T13:14:56.160Z,32.34
2018-10-16T13:16:06.490Z,33.02
2018-10-16T13:17:17.421Z,33.02
2018-10-16T13:18:27.566Z,32.81
2018-10-16T13:19:37.708Z,33.31
2018-10-16T13:20:47.850Z,33.39
2018-10-16T13:21:58.155Z,33.59
2018-10-16T13:23:08.659Z,33.59
2018-10-16T13:24:19.301Z,33.78
2018-10-16T13:25:29.228Z,33.59
2018-10-16T13:26:39.113Z,33.49
2018-10-16T13:27:49.282Z,33.78
2018-10-16T13:28:59.388Z,33.76
2018-10-16T13:30:10.181Z,34.54
2018-10-16T13:31:20.331Z,34.35
2018-10-16T13:32:30.620Z,34.44
2018-10-16T13:33:40.753Z,34.74
2018-10-16T13:34:51.024Z,34.64
2018-10-16T13:36:01.311Z,34.54
2018-10-16T13:37:11.195Z,34.44
2018-10-16T13:38:21.026Z,34.54
2018-10-16T13:39:32.344Z,34.44
2018-10-16T13:40:42.514Z,34.43
2018-10-16T13:41:52.705Z,34.72
2018-10-16T13:43:02.533Z,34.72
2018-10-16T13:44:12.997Z,35.11
2018-10-16T13:45:23.382Z,35.21
2018-10-16T13:46:33.569Z,35.4
2018-10-16T13:47:43.791Z,35.3
2018-10-16T13:48:53.748Z,35.21
2018-10-16T13:50:03.953Z,35.59
2018-10-16T13:51:14.575Z,35.48
2018-10-16T13:52:24.784Z,35.86
2018-10-16T13:53:34.992Z,35.96
2018-10-16T13:54:45.196Z,36.06
2018-10-16T13:55:56.483Z,36.16
2018-10-16T13:57:06.894Z,36.25
2018-10-16T13:58:17.149Z,36.16
2018-10-16T13:59:27.120Z,36.44
2018-10-16T14:00:37.489Z,36.44
2018-10-16T14:01:47.655Z,36.62
2018-10-16T14:02:57.947Z,36.72
2018-10-16T14:04:08.210Z,36.91
2018-10-16T14:05:18.808Z,36.91
2018-10-16T14:06:28.959Z,36.72
2018-10-16T14:07:40.182Z,36.8
2018-10-16T14:08:50.073Z,37.09
2018-10-16T14:10:00.383Z,37.19
2018-10-16T14:11:10.741Z,37.38
2018-10-16T14:12:20.636Z,37.48
2018-10-16T14:13:30.805Z,37.28
2018-10-16T14:14:40.949Z,37.57
2018-10-16T14:15:51.138Z,37.67
2018-10-16T14:17:01.554Z,37.67
2018-10-16T14:18:11.698Z,37.67
2018-10-16T14:19:21.917Z,37.67
2018-10-16T14:20:32.102Z,38.35
2018-10-16T14:21:41.962Z,38.25
2018-10-16T14:22:52.124Z,38.15
2018-10-16T14:24:02.314Z,38.35
2018-10-16T14:25:12.544Z,38.06
2018-10-16T14:26:22.790Z,38.15
2018-10-16T14:27:33.317Z,38.23
2018-10-16T14:28:43.481Z,38.43
2018-10-16T14:29:53.663Z,38.43
2018-10-16T14:31:03.861Z,38.91
2018-10-16T14:32:14.265Z,38.71
2018-10-16T14:33:25.059Z,38.91
2018-10-16T14:34:35.720Z,38.91
2018-10-16T14:35:46.538Z,38.89
2018-10-16T14:36:56.682Z,38.79
2018-10-16T14:38:07.047Z,39.37
2018-10-16T14:39:17.845Z,39.37
2018-10-16T14:40:27.909Z,39.37
2018-10-16T14:41:38.625Z,39.76
2018-10-16T14:42:49.779Z,39.57
2018-10-16T14:43:59.887Z,39.47
2018-10-16T14:45:10.441Z,39.67
2018-10-16T14:46:20.615Z,39.76
2018-10-16T14:47:30.600Z,39.67
2018-10-16T14:48:40.845Z,39.86
2018-10-16T14:49:50.767Z,39.76
2018-10-16T14:51:01.055Z,39.95
2018-10-16T14:52:11.453Z,39.95
2018-10-16T14:53:21.404Z,40.15
2018-10-16T14:54:31.552Z,40.15
2018-10-16T14:55:41.646Z,40.25
2018-10-16T14:56:51.922Z,40.44
2018-10-16T14:58:02.394Z,40.53
2018-10-16T14:59:13.014Z,40.81
2018-10-16T15:00:23.186Z,40.81
2018-10-16T15:01:33.343Z,40.71
2018-10-16T15:02:44.210Z,40.52
2018-10-16T15:03:54.425Z,40.71
2018-10-16T15:05:04.463Z,41
2018-10-16T15:06:14.628Z,40.71
2018-10-16T15:07:24.530Z,41.29
2018-10-16T15:08:34.698Z,41.19
2018-10-16T15:09:44.978Z,41.17
2018-10-16T15:10:55.511Z,41.36
2018-10-16T15:12:05.678Z,41.56
2018-10-16T15:13:15.498Z,41.75
2018-10-16T15:14:25.436Z,41.85
2018-10-16T15:15:35.672Z,41.56
2018-10-16T15:16:45.767Z,41.75
2018-10-16T15:17:55.993Z,41.94
2018-10-16T15:19:06.155Z,41.94
2018-10-16T15:20:16.542Z,42.12
2018-10-16T15:21:26.887Z,42.31
2018-10-16T15:22:37.179Z,42.5
2018-10-16T15:23:47.841Z,42.6